Time;durP1;ratioP1;P1;durP2;ratioP2;P2;SDS_P1;SDS_P2;PMS_P1;PMS_P2;Temp;Humidity;BMP_temperature;BMP_pressure;BME280_temperature;BME280_humidity;BME280_pressure;Samples;Min_cycle;Max_cycle;Signal;HPM_P1;HPM_P2
2021/06/23 00:01:09;;;;;;;1.30;1.20;;;18.70;98.00;;;;;;5068623;28;20469;-71
2021/06/23 00:03:36;;;;;;;1.20;1.10;;;18.60;98.00;;;;;;5070718;28;20492;-73
2021/06/23 00:06:03;;;;;;;2.00;1.50;;;18.70;98.00;;;;;;5068710;28;20452;-71
2021/06/23 00:08:33;;;;;;;1.30;1.20;;;18.80;98.00;;;;;;5070880;28;20492;-72
2021/06/23 00:11:00;;;;;;;1.50;1.20;;;19.00;98.00;;;;;;5068380;28;20484;-72
2021/06/23 00:13:32;;;;;;;1.20;1.10;;;19.20;98.00;;;;;;5070616;28;20468;-71
2021/06/23 00:15:59;;;;;;;1.93;1.50;;;19.20;98.00;;;;;;5068702;28;20461;-71
2021/06/23 00:18:26;;;;;;;1.40;1.30;;;19.00;98.00;;;;;;5070584;28;20461;-72
2021/06/23 00:20:53;;;;;;;2.80;1.30;;;18.80;98.00;;;;;;5068351;28;20526;-71
2021/06/23 00:23:20;;;;;;;1.40;1.40;;;18.70;98.00;;;;;;5070396;28;20461;-72
2021/06/23 00:25:49;;;;;;;1.30;1.20;;;18.70;98.00;;;;;;5068468;28;20506;-71
2021/06/23 00:28:16;;;;;;;1.30;1.20;;;18.80;98.00;;;;;;5070506;28;20595;-73
2021/06/23 00:30:43;;;;;;;1.20;1.10;;;18.70;98.00;;;;;;5068309;28;20449;-71
2021/06/23 00:33:16;;;;;;;1.20;1.10;;;18.50;98.00;;;;;;5070355;28;20481;-71
2021/06/23 00:35:43;;;;;;;1.20;1.13;;;18.40;98.00;;;;;;5068232;28;20467;-72
2021/06/23 00:38:10;;;;;;;1.50;1.50;;;18.50;98.00;;;;;;5070374;28;20449;-71
2021/06/23 00:40:37;;;;;;;1.20;1.20;;;18.70;98.00;;;;;;5068226;28;20456;-72
2021/06/23 00:43:06;;;;;;;1.10;1.10;;;18.70;98.00;;;;;;5070408;28;20514;-72
2021/06/23 00:45:34;;;;;;;1.20;1.20;;;18.60;98.00;;;;;;5068270;28;20510;-71
2021/06/23 00:48:06;;;;;;;1.10;1.10;;;18.50;98.00;;;;;;5069564;28;20502;-71
2021/06/23 00:50:34;;;;;;;1.27;1.23;;;18.50;98.00;;;;;;5067247;28;20456;-71
2021/06/23 00:53:02;;;;;;;1.70;1.50;;;18.50;98.00;;;;;;5070247;28;20492;-71
2021/06/23 00:55:29;;;;;;;1.30;1.17;;;18.50;98.00;;;;;;5069615;28;20488;-72
2021/06/23 00:57:56;;;;;;;1.30;1.17;;;18.50;98.00;;;;;;5074155;28;20864;-71
2021/06/23 01:00:27;;;;;;;1.20;1.10;;;18.40;98.00;;;;;;5072050;28;20973;-71
2021/06/23 01:02:55;;;;;;;1.20;1.20;;;18.40;98.00;;;;;;5073886;28;20480;-71
2021/06/23 01:05:22;;;;;;;1.70;1.67;;;18.40;98.00;;;;;;5071564;28;20453;-71
2021/06/23 01:07:50;;;;;;;1.33;1.20;;;18.30;98.00;;;;;;5073801;28;20797;-70
2021/06/23 01:10:17;;;;;;;1.53;1.40;;;18.30;98.00;;;;;;5072003;28;20539;-71
2021/06/23 01:12:57;;;;;;;5.90;1.70;;;18.20;98.00;;;;;;5073733;28;20886;-72
2021/06/23 01:15:28;;;;;;;1.50;1.50;;;18.20;98.00;;;;;;5070536;28;20506;-70
2021/06/23 01:17:55;;;;;;;1.20;1.20;;;18.30;98.00;;;;;;5073801;28;20480;-71
2021/06/23 01:20:22;;;;;;;1.33;1.27;;;18.40;98.00;;;;;;5071991;28;20503;-71
2021/06/23 01:22:50;;;;;;;1.87;1.20;;;18.40;98.00;;;;;;5073680;28;20518;-71
2021/06/23 01:25:18;;;;;;;1.20;1.13;;;18.40;98.00;;;;;;5071471;28;20488;-70
2021/06/23 01:27:46;;;;;;;1.20;1.13;;;18.40;98.00;;;;;;5073320;28;20484;-71
2021/06/23 01:30:16;;;;;;;1.23;1.20;;;18.40;98.00;;;;;;5071402;28;20469;-71
2021/06/23 01:32:43;;;;;;;1.30;1.20;;;18.50;98.00;;;;;;5073127;28;20457;-72
2021/06/23 01:35:11;;;;;;;1.30;1.20;;;18.60;98.00;;;;;;5071262;28;20465;-71
2021/06/23 01:37:38;;;;;;;1.30;1.20;;;18.80;98.00;;;;;;5073426;28;20539;-72
2021/06/23 01:40:08;;;;;;;1.40;1.03;;;18.70;98.00;;;;;;5071291;28;20496;-71
2021/06/23 01:42:35;;;;;;;1.10;1.10;;;18.70;98.00;;;;;;5073202;28;20460;-71
2021/06/23 01:45:02;;;;;;;1.10;1.10;;;18.60;98.00;;;;;;5070988;28;20464;-71
2021/06/23 01:47:29;;;;;;;1.20;1.10;;;18.60;98.00;;;;;;5071644;28;20488;-70
2021/06/23 01:49:56;;;;;;;1.30;1.20;;;18.50;98.00;;;;;;5071174;28;20488;-72
2021/06/23 01:52:23;;;;;;;1.30;1.20;;;18.40;98.00;;;;;;5073041;28;21001;-71
2021/06/23 01:54:52;;;;;;;2.03;1.10;;;18.40;98.00;;;;;;5070772;28;20749;-71
2021/06/23 01:57:21;;;;;;;1.10;1.10;;;18.40;98.00;;;;;;5072962;28;20540;-71
2021/06/23 02:00:04;;;;;;;1.20;1.17;;;18.50;98.00;;;;;;5070532;28;20486;-71
2021/06/23 02:02:35;;;;;;;1.53;1.20;;;18.40;98.00;;;;;;5072837;28;20518;-71
2021/06/23 02:05:05;;;;;;;1.10;1.07;;;18.30;98.00;;;;;;5070547;28;20476;-71
2021/06/23 02:07:58;;;;;;;1.73;1.10;;;18.20;98.00;;;;;;5071886;28;20596;-71
2021/06/23 02:10:51;;;;;;;1.43;1.20;;;18.30;98.00;;;;;;5070649;28;20460;-71
2021/06/23 02:13:57;;;;;;;1.30;1.30;;;18.20;98.00;;;;;;5072696;28;20464;-72
2021/06/23 02:16:26;;;;;;;1.60;1.40;;;18.20;98.00;;;;;;5070233;28;20457;-72
2021/06/23 02:18:54;;;;;;;1.20;1.10;;;18.30;98.00;;;;;;5072539;28;20586;-71
2021/06/23 02:21:22;;;;;;;2.07;1.37;;;18.30;98.00;;;;;;5070461;28;20446;-71
2021/06/23 02:23:49;;;;;;;1.20;1.10;;;18.20;98.00;;;;;;5071141;28;20579;-71
2021/06/23 02:26:16;;;;;;;1.17;1.07;;;18.10;98.00;;;;;;5069182;28;20896;-71
2021/06/23 02:28:44;;;;;;;1.13;1.07;;;18.10;98.00;;;;;;5072213;28;20650;-71
2021/06/23 02:31:12;;;;;;;1.47;1.20;;;18.10;98.00;;;;;;5070350;28;20477;-71
2021/06/23 02:33:42;;;;;;;1.20;1.20;;;18.10;98.00;;;;;;5071390;28;20457;-71
2021/06/23 02:36:10;;;;;;;1.20;1.13;;;18.10;98.00;;;;;;5070299;28;20461;-71
2021/06/23 02:38:37;;;;;;;1.17;1.10;;;18.10;98.00;;;;;;5072238;28;20456;-72
2021/06/23 02:41:04;;;;;;;1.10;1.03;;;18.00;98.00;;;;;;5069892;28;20456;-72
2021/06/23 02:43:32;;;;;;;1.17;1.10;;;18.00;98.00;;;;;;5072338;28;20484;-71
2021/06/23 02:46:00;;;;;;;1.20;1.20;;;18.10;98.00;;;;;;5069751;28;20488;-71
2021/06/23 02:48:28;;;;;;;1.33;1.23;;;18.20;98.00;;;;;;5071960;28;20484;-71
2021/06/23 02:51:02;;;;;;;1.53;1.40;;;18.10;98.00;;;;;;5069868;28;20480;-72
2021/06/23 02:53:30;;;;;;;2.37;1.27;;;18.20;98.00;;;;;;5071793;28;20452;-71
2021/06/23 02:55:58;;;;;;;1.37;1.27;;;18.00;98.00;;;;;;5069607;28;20492;-71
2021/06/23 02:58:26;;;;;;;1.73;1.40;;;17.90;98.00;;;;;;5071564;28;20457;-71
2021/06/23 03:00:54;;;;;;;1.10;1.10;;;17.90;98.00;;;;;;5069590;28;20461;-71
2021/06/23 03:03:21;;;;;;;1.20;1.20;;;17.90;98.00;;;;;;5071646;28;20482;-71
2021/06/23 03:05:48;;;;;;;1.30;1.20;;;17.90;98.00;;;;;;5069384;28;20550;-71
2021/06/23 03:08:17;;;;;;;1.30;1.20;;;17.90;98.00;;;;;;5071552;28;20901;-71
2021/06/23 03:10:44;;;;;;;1.17;1.10;;;17.80;98.00;;;;;;5069691;28;20453;-71
2021/06/23 03:13:12;;;;;;;1.30;1.27;;;17.80;98.00;;;;;;5071342;28;20481;-71
2021/06/23 03:15:39;;;;;;;1.33;1.10;;;17.80;98.00;;;;;;5067866;28;20457;-71
2021/06/23 03:18:06;;;;;;;1.30;1.20;;;17.80;98.00;;;;;;5071142;28;20456;-71
2021/06/23 03:20:33;;;;;;;1.20;1.10;;;17.80;98.00;;;;;;5069500;28;20871;-71
2021/06/23 03:23:02;;;;;;;1.33;1.20;;;17.70;98.00;;;;;;5071091;28;20963;-71
2021/06/23 03:25:30;;;;;;;1.30;1.20;;;17.70;98.00;;;;;;5069137;28;20530;-71
2021/06/23 03:27:59;;;;;;;1.20;1.10;;;17.70;98.00;;;;;;5071138;28;20550;-71
2021/06/23 03:30:28;;;;;;;1.20;1.10;;;17.50;98.00;;;;;;5069407;28;20484;-71
2021/06/23 03:32:57;;;;;;;1.30;1.20;;;17.50;98.00;;;;;;5071221;28;20448;-71
2021/06/23 03:35:25;;;;;;;1.20;1.00;;;17.50;98.00;;;;;;5068438;28;20449;-72
2021/06/23 03:37:56;;;;;;;1.70;1.10;;;17.50;98.00;;;;;;5071123;28;20974;-72
2021/06/23 03:40:24;;;;;;;1.20;1.10;;;17.60;98.00;;;;;;5069322;28;20453;-70
2021/06/23 03:42:55;;;;;;;1.20;1.10;;;17.70;98.00;;;;;;5071177;28;20449;-72
2021/06/23 03:45:22;;;;;;;1.20;1.20;;;17.70;98.00;;;;;;5069241;28;20950;-71
2021/06/23 03:47:51;;;;;;;1.20;1.20;;;17.50;98.00;;;;;;5069819;28;20538;-70
2021/06/23 03:50:19;;;;;;;1.30;1.20;;;17.40;98.00;;;;;;5069396;28;20441;-71
2021/06/23 03:52:49;;;;;;;1.20;1.10;;;17.50;98.00;;;;;;5070909;28;20952;-72
2021/06/23 03:55:25;;;;;;;1.40;1.20;;;17.60;98.00;;;;;;5069039;28;20951;-70
2021/06/23 03:57:55;;;;;;;1.63;1.37;;;17.60;98.00;;;;;;5070727;28;20453;-72
2021/06/23 04:00:25;;;;;;;1.70;1.53;;;17.40;98.00;;;;;;5068728;28;20445;-71
2021/06/23 04:02:53;;;;;;;1.30;1.10;;;17.30;98.00;;;;;;5071009;28;20488;-71
2021/06/23 04:05:21;;;;;;;3.03;1.30;;;17.20;98.00;;;;;;5068834;28;20543;-72
2021/06/23 04:07:49;;;;;;;1.10;1.00;;;17.20;98.00;;;;;;5070688;28;20563;-71
2021/06/23 04:10:18;;;;;;;1.20;1.10;;;17.10;98.00;;;;;;5068826;28;20514;-72
2021/06/23 04:12:45;;;;;;;1.30;1.20;;;17.20;98.00;;;;;;5070757;28;20534;-72
2021/06/23 04:15:16;;;;;;;1.20;1.20;;;17.20;98.00;;;;;;5068145;28;20452;-70
2021/06/23 04:17:44;;;;;;;1.10;1.00;;;17.20;98.00;;;;;;5070643;28;20530;-72
2021/06/23 04:20:12;;;;;;;1.10;1.10;;;17.20;98.00;;;;;;5068551;28;20457;-71
2021/06/23 04:22:39;;;;;;;1.10;1.00;;;17.20;98.00;;;;;;5070549;28;20479;-71
2021/06/23 04:25:09;;;;;;;1.40;1.37;;;17.30;98.00;;;;;;5068481;28;20554;-70
2021/06/23 04:27:35;;;;;;;1.13;1.10;;;17.40;98.00;;;;;;5070614;28;20585;-71
2021/06/23 04:30:05;;;;;;;1.40;1.30;;;17.40;98.00;;;;;;5070654;28;20460;-71
2021/06/23 04:32:33;;;;;;;1.20;1.20;;;17.50;98.00;;;;;;5074706;28;20457;-71
2021/06/23 04:35:03;;;;;;;1.37;1.33;;;17.70;98.00;;;;;;5072683;28;20498;-73
2021/06/23 04:37:30;;;;;;;1.50;1.37;;;17.80;98.00;;;;;;5074516;28;20453;-72
2021/06/23 04:39:57;;;;;;;1.10;1.10;;;17.80;98.00;;;;;;5074051;28;20502;-71
2021/06/23 04:42:24;;;;;;;1.30;1.20;;;17.90;98.00;;;;;;5072285;28;20502;-71
2021/06/23 04:44:51;;;;;;;2.87;1.27;;;17.90;98.00;;;;;;5074346;28;20480;-72
2021/06/23 04:47:19;;;;;;;1.60;1.20;;;17.90;98.00;;;;;;5072361;28;20448;-71
2021/06/23 04:49:47;;;;;;;1.30;1.30;;;18.00;98.00;;;;;;5074077;28;20476;-71
2021/06/23 04:52:15;;;;;;;1.10;1.10;;;18.20;98.00;;;;;;5072298;28;20492;-71
2021/06/23 04:54:42;;;;;;;1.30;1.23;;;18.20;98.00;;;;;;5074248;28;20535;-72
2021/06/23 04:57:10;;;;;;;1.80;1.20;;;18.20;98.00;;;;;;5072259;28;20492;-70
2021/06/23 04:59:37;;;;;;;1.47;1.30;;;18.20;98.00;;;;;;5074404;28;20456;-71
2021/06/23 05:02:04;;;;;;;1.70;1.50;;;18.20;98.00;;;;;;5072236;28;20995;-71
2021/06/23 05:04:33;;;;;;;3.17;1.70;;;18.10;98.00;;;;;;5073972;28;20803;-72
2021/06/23 05:07:04;;;;;;;1.20;1.13;;;18.20;98.00;;;;;;5071752;28;20455;-72
2021/06/23 05:09:31;;;;;;;1.37;1.30;;;18.30;98.00;;;;;;5073940;28;20485;-70
2021/06/23 05:11:58;;;;;;;1.20;1.20;;;18.30;98.00;;;;;;5071669;28;20939;-72
2021/06/23 05:14:26;;;;;;;2.07;1.30;;;18.40;98.00;;;;;;5073751;28;21020;-71
2021/06/23 05:16:53;;;;;;;1.53;1.43;;;18.50;98.00;;;;;;5071576;28;20513;-71
2021/06/23 05:19:20;;;;;;;1.57;1.53;;;18.50;98.00;;;;;;5073703;28;20457;-70
2021/06/23 05:21:47;;;;;;;1.20;1.10;;;18.60;98.00;;;;;;5071626;28;20535;-72
2021/06/23 05:24:16;;;;;;;1.63;1.53;;;18.70;98.00;;;;;;5073264;28;20452;-71
2021/06/23 05:26:43;;;;;;;1.30;1.23;;;18.80;98.00;;;;;;5071547;28;20464;-71
2021/06/23 05:29:10;;;;;;;1.67;1.20;;;18.90;98.00;;;;;;5073336;28;20608;-70
2021/06/23 05:31:37;;;;;;;1.70;1.23;;;19.10;98.00;;;;;;5071311;28;20460;-72
2021/06/23 05:34:04;;;;;;;1.83;1.43;;;19.10;98.00;;;;;;5073382;28;20484;-72
2021/06/23 05:36:31;;;;;;;1.30;1.20;;;19.20;98.00;;;;;;5070248;28;20453;-72
2021/06/23 05:38:59;;;;;;;1.50;1.30;;;19.10;98.00;;;;;;5073639;28;20460;-72
2021/06/23 05:41:27;;;;;;;1.20;1.20;;;19.00;98.00;;;;;;5070941;28;20453;-71
2021/06/23 05:43:54;;;;;;;1.50;1.30;;;19.00;98.00;;;;;;5073469;28;20543;-71
2021/06/23 05:46:22;;;;;;;1.40;1.20;;;19.00;98.00;;;;;;5071069;28;20500;-71
2021/06/23 05:48:49;;;;;;;1.30;1.30;;;18.90;98.00;;;;;;5072137;28;21018;-70
2021/06/23 05:51:16;;;;;;;1.60;1.40;;;18.80;98.00;;;;;;5071034;28;20452;-71
2021/06/23 05:53:43;;;;;;;1.60;1.50;;;18.70;98.00;;;;;;5074372;28;20496;-72
2021/06/23 05:56:10;;;;;;;1.60;1.30;;;18.70;98.00;;;;;;5072251;28;20955;-71
2021/06/23 05:58:39;;;;;;;1.40;1.30;;;18.60;98.00;;;;;;5072087;28;20570;-70
2021/06/23 06:01:06;;;;;;;1.17;1.00;;;18.60;98.00;;;;;;5072192;28;20511;-71
2021/06/23 06:03:33;;;;;;;1.10;1.00;;;18.60;98.00;;;;;;5074091;28;20467;-73
2021/06/23 06:06:02;;;;;;;1.43;1.27;;;18.70;98.00;;;;;;5071024;28;20460;-72
2021/06/23 06:08:29;;;;;;;2.00;1.40;;;18.70;98.00;;;;;;5072765;28;20489;-72
2021/06/23 06:10:56;;;;;;;1.97;1.43;;;18.70;98.00;;;;;;5070760;28;20676;-70
2021/06/23 06:13:24;;;;;;;1.20;1.13;;;18.50;98.00;;;;;;5072906;28;20496;-71
2021/06/23 06:15:52;;;;;;;1.20;1.10;;;18.40;98.00;;;;;;5070727;28;20502;-70
2021/06/23 06:18:20;;;;;;;1.97;1.30;;;18.40;98.00;;;;;;5072815;28;20514;-71
2021/06/23 06:20:48;;;;;;;1.60;1.50;;;18.60;98.00;;;;;;5070927;28;20943;-70
2021/06/23 06:23:21;;;;;;;1.63;1.30;;;18.70;98.00;;;;;;5072707;28;20963;-71
2021/06/23 06:25:48;;;;;;;1.70;1.33;;;18.90;98.00;;;;;;5070789;28;20464;-71
2021/06/23 06:28:15;;;;;;;1.13;1.13;;;19.10;98.00;;;;;;5072425;28;20500;-71
2021/06/23 06:30:42;;;;;;;1.33;1.10;;;19.30;98.00;;;;;;5070343;28;20504;-72
2021/06/23 06:33:11;;;;;;;1.60;1.30;;;19.50;98.00;;;;;;5072380;28;20456;-71
2021/06/23 06:35:39;;;;;;;2.13;1.30;;;19.70;98.00;;;;;;5069780;28;20537;-71
2021/06/23 06:38:07;;;;;;;1.10;1.00;;;19.80;98.00;;;;;;5072345;28;21000;-71
2021/06/23 06:40:35;;;;;;;1.53;1.30;;;19.90;98.00;;;;;;5070174;28;20977;-72
2021/06/23 06:43:02;;;;;;;1.20;1.10;;;20.10;98.00;;;;;;5072424;28;20458;-71
2021/06/23 06:45:29;;;;;;;1.20;1.10;;;20.30;98.00;;;;;;5069751;28;20503;-71
2021/06/23 06:47:57;;;;;;;1.20;1.00;;;20.50;98.00;;;;;;5072120;28;20552;-71
2021/06/23 06:50:25;;;;;;;1.20;1.17;;;20.50;98.00;;;;;;5069632;28;20512;-71
2021/06/23 06:52:52;;;;;;;1.40;1.10;;;20.50;98.00;;;;;;5071349;28;20503;-72
2021/06/23 06:55:21;;;;;;;2.03;1.63;;;20.60;98.00;;;;;;5069713;28;20885;-72
2021/06/23 06:57:49;;;;;;;1.20;1.10;;;20.80;98.00;;;;;;5071659;28;20974;-71
2021/06/23 07:00:17;;;;;;;1.33;1.27;;;21.00;98.00;;;;;;5068313;28;20514;-71
2021/06/23 07:02:45;;;;;;;1.30;1.20;;;21.10;98.00;;;;;;5071921;28;20989;-72
2021/06/23 07:05:12;;;;;;;1.40;1.33;;;21.20;98.00;;;;;;5053383;28;20456;-70
2021/06/23 07:07:40;;;;;;;1.70;1.33;;;21.30;98.00;;;;;;5070866;28;20526;-71
2021/06/23 07:10:08;;;;;;;1.20;1.10;;;21.20;98.00;;;;;;5071085;28;20527;-71
2021/06/23 07:12:38;;;;;;;1.27;1.17;;;21.20;98.00;;;;;;5069841;28;20461;-71
2021/06/23 07:15:06;;;;;;;1.30;1.20;;;21.10;98.00;;;;;;5071066;28;20478;-69
2021/06/23 07:17:33;;;;;;;1.30;1.10;;;21.10;98.00;;;;;;5068179;28;20973;-72
2021/06/23 07:20:00;;;;;;;1.60;1.33;;;21.10;98.00;;;;;;5071004;28;20538;-71
2021/06/23 07:22:27;;;;;;;1.30;1.30;;;21.20;98.00;;;;;;5067676;28;20820;-70
2021/06/23 07:24:56;;;;;;;2.20;1.70;;;21.50;98.00;;;;;;5070966;28;20590;-70
2021/06/23 07:27:23;;;;;;;2.00;1.50;;;21.80;98.00;;;;;;5068195;28;20550;-73
2021/06/23 07:29:51;;;;;;;1.30;1.20;;;22.00;98.00;;;;;;5070641;28;20484;-72
2021/06/23 07:32:22;;;;;;;1.50;1.10;;;22.30;98.00;;;;;;5068933;28;20478;-72
2021/06/23 07:37:30;;;;;;;1.30;1.20;;;22.80;98.00;;;;;;5068659;28;20483;-72
2021/06/23 07:39:58;;;;;;;1.40;1.30;;;22.90;98.00;;;;;;5070950;28;21017;-72
2021/06/23 07:42:25;;;;;;;1.20;1.10;;;22.90;98.00;;;;;;5068781;28;20456;-72
2021/06/23 07:44:57;;;;;;;1.20;1.10;;;22.90;98.00;;;;;;5070955;28;20534;-72
2021/06/23 07:47:26;;;;;;;1.47;1.40;;;22.70;98.00;;;;;;5068828;28;20452;-71
2021/06/23 07:49:54;;;;;;;1.40;1.33;;;22.60;98.00;;;;;;5069297;28;20488;-73
2021/06/23 07:52:30;;;;;;;1.43;1.27;;;22.50;98.00;;;;;;5067358;28;20457;-71
2021/06/23 07:55:40;;;;;;;1.20;1.00;;;22.40;98.00;;;;;;5069960;28;20506;-73
2021/06/23 08:09:23;;;;;;;1.20;1.10;;;22.40;98.00;;;;;;5057011;28;20575;-72
2021/06/23 08:11:54;;;;;;;1.20;1.13;;;22.40;98.00;;;;;;5068631;28;20486;-72
2021/06/23 08:14:21;;;;;;;1.30;1.10;;;22.50;98.00;;;;;;5070844;28;20742;-72
2021/06/23 08:16:48;;;;;;;1.27;1.17;;;22.70;98.00;;;;;;5067210;28;20503;-72
2021/06/23 08:19:16;;;;;;;1.40;1.30;;;22.70;98.00;;;;;;5070558;28;20881;-72
2021/06/23 08:21:43;;;;;;;1.30;1.30;;;22.80;98.00;;;;;;5061221;28;20544;-72
2021/06/23 08:24:10;;;;;;;1.20;1.20;;;22.90;98.00;;;;;;5050621;28;20457;-72
2021/06/23 08:26:37;;;;;;;1.20;1.17;;;23.10;98.00;;;;;;5047165;28;20481;-73
2021/06/23 08:29:05;;;;;;;1.40;1.40;;;23.00;98.00;;;;;;5050323;28;20489;-73
2021/06/23 08:31:32;;;;;;;1.67;1.50;;;23.00;98.00;;;;;;5048138;28;20897;-73
2021/06/23 08:33:59;;;;;;;1.20;1.10;;;22.90;98.00;;;;;;5050517;28;20882;-72
2021/06/23 08:36:29;;;;;;;1.70;1.50;;;23.10;98.00;;;;;;5046526;28;20460;-73
2021/06/23 08:38:56;;;;;;;1.20;1.10;;;23.30;98.00;;;;;;5050251;28;20972;-73
2021/06/23 08:41:26;;;;;;;1.40;1.20;;;23.40;98.00;;;;;;5059970;28;20522;-73
2021/06/23 08:43:53;;;;;;;1.40;1.23;;;23.40;98.00;;;;;;5070430;28;20484;-72
2021/06/23 08:46:22;;;;;;;1.20;1.00;;;23.50;98.00;;;;;;5068062;28;20514;-72
2021/06/23 08:48:49;;;;;;;1.20;1.20;;;23.60;98.00;;;;;;5069797;28;20915;-73
2021/06/23 08:51:17;;;;;;;1.20;1.20;;;23.50;97.40;;;;;;5068228;28;20876;-74
2021/06/23 08:53:45;;;;;;;1.30;1.20;;;23.60;98.00;;;;;;5070267;28;20870;-74
2021/06/23 08:56:12;;;;;;;1.20;1.20;;;23.60;98.00;;;;;;5068074;28;20465;-74
2021/06/23 08:58:40;;;;;;;1.50;1.30;;;23.80;98.00;;;;;;5069966;28;20492;-74
2021/06/23 09:01:07;;;;;;;1.27;1.27;;;24.00;98.00;;;;;;5067688;28;20453;-74
2021/06/23 09:04:06;;;;;;;1.70;1.37;;;24.20;98.00;;;;;;5070014;28;20480;-74
2021/06/23 09:06:49;;;;;;;1.30;1.23;;;24.20;95.70;;;;;;5067913;28;20935;-74
2021/06/23 09:09:25;;;;;;;1.30;1.30;;;24.20;94.80;;;;;;5068940;28;20485;-75
2021/06/23 09:11:54;;;;;;;1.20;1.20;;;24.30;95.50;;;;;;5067857;28;20456;-74
2021/06/23 09:14:24;;;;;;;1.77;1.40;;;24.30;96.50;;;;;;5069995;28;20506;-74
2021/06/23 09:17:08;;;;;;;1.37;1.23;;;24.50;95.80;;;;;;5071107;28;20465;-74
2021/06/23 09:19:37;;;;;;;1.30;1.27;;;24.60;96.90;;;;;;5073669;28;20463;-74
2021/06/23 09:22:26;;;;;;;1.50;1.30;;;24.70;92.80;;;;;;5069741;28;20464;-73
2021/06/23 09:24:59;;;;;;;1.60;1.27;;;24.70;95.40;;;;;;5073045;28;20962;-70
2021/06/23 09:27:28;;;;;;;1.20;1.10;;;24.70;93.40;;;;;;5070370;28;20550;-71
2021/06/23 09:30:16;;;;;;;1.30;1.30;;;24.90;95.10;;;;;;5073439;28;20480;-73
2021/06/23 09:32:44;;;;;;;1.90;1.40;;;24.90;91.20;;;;;;5070985;28;20962;-74
2021/06/23 09:35:27;;;;;;;1.57;1.20;;;25.10;94.50;;;;;;5073098;28;20487;-71
2021/06/23 09:37:54;;;;;;;1.87;1.27;;;25.20;92.00;;;;;;5071134;28;20536;-75
2021/06/23 09:40:24;;;;;;;1.37;1.20;;;25.30;91.20;;;;;;5073771;28;20811;-73
2021/06/23 09:42:56;;;;;;;1.20;1.10;;;25.40;89.10;;;;;;5071028;28;20548;-73
2021/06/23 09:45:23;;;;;;;1.30;1.20;;;25.50;91.00;;;;;;5072813;28;20951;-72
2021/06/23 09:47:59;;;;;;;1.40;1.20;;;25.60;87.50;;;;;;5069639;28;20516;-73
2021/06/23 09:50:32;;;;;;;1.27;1.23;;;25.70;88.90;;;;;;5072172;28;20601;-73
2021/06/23 09:53:02;;;;;;;1.30;1.20;;;25.70;91.40;;;;;;5072538;28;20460;-73
2021/06/23 09:55:42;;;;;;;1.40;1.30;;;25.70;87.50;;;;;;5072598;28;20453;-73
2021/06/23 09:58:12;;;;;;;1.30;1.20;;;25.90;90.40;;;;;;5073606;28;20457;-72
2021/06/23 10:01:00;;;;;;;1.50;1.50;;;25.80;86.90;;;;;;5070786;28;20456;-73
2021/06/23 10:03:30;;;;;;;1.30;1.17;;;25.90;87.70;;;;;;5073070;28;20489;-73
2021/06/23 10:05:58;;;;;;;1.20;1.20;;;26.00;86.50;;;;;;5069527;28;20456;-73
2021/06/23 10:08:26;;;;;;;1.23;1.13;;;26.20;88.60;;;;;;5072980;28;20983;-72
2021/06/23 10:10:55;;;;;;;1.20;1.10;;;26.40;87.50;;;;;;5070225;28;20489;-73
2021/06/23 10:13:22;;;;;;;1.60;1.30;;;26.50;85.10;;;;;;5072580;28;20677;-74
2021/06/23 10:15:50;;;;;;;1.40;1.20;;;26.60;86.40;;;;;;5070349;28;20495;-73
2021/06/23 10:18:22;;;;;;;1.40;1.20;;;26.70;83.70;;;;;;5072859;28;20461;-73
2021/06/23 10:20:49;;;;;;;1.20;1.20;;;26.80;84.30;;;;;;5068893;28;20453;-73
2021/06/23 10:23:17;;;;;;;1.30;1.10;;;27.00;85.70;;;;;;5072673;28;20461;-73
2021/06/23 10:25:45;;;;;;;1.83;1.20;;;27.10;84.60;;;;;;5070211;28;20559;-73
2021/06/23 10:28:17;;;;;;;1.20;1.20;;;27.30;86.20;;;;;;5071498;28;20465;-74
2021/06/23 10:30:46;;;;;;;1.20;1.10;;;27.30;85.10;;;;;;5070018;28;20528;-73
2021/06/23 10:33:14;;;;;;;1.30;1.30;;;27.40;85.40;;;;;;5072537;28;20883;-73
2021/06/23 10:35:42;;;;;;;1.40;1.20;;;27.40;83.10;;;;;;5070002;28;20483;-74
2021/06/23 10:38:10;;;;;;;1.47;1.30;;;27.40;87.30;;;;;;5072708;28;20518;-73
2021/06/23 10:40:38;;;;;;;1.20;1.10;;;27.60;84.20;;;;;;5070037;28;20959;-73
2021/06/23 10:43:15;;;;;;;1.30;1.20;;;27.70;82.70;;;;;;5072392;28;20586;-73
2021/06/23 10:45:43;;;;;;;1.43;1.37;;;27.70;85.30;;;;;;5069781;28;20883;-74
2021/06/23 10:48:11;;;;;;;1.40;1.20;;;27.80;83.80;;;;;;5072354;28;20544;-73
2021/06/23 10:50:39;;;;;;;1.20;1.10;;;27.90;82.70;;;;;;5070792;28;20564;-75
2021/06/23 10:53:28;;;;;;;1.30;1.10;;;27.90;82.10;;;;;;5071252;28;20989;-74
2021/06/23 10:55:59;;;;;;;1.43;1.30;;;27.90;80.10;;;;;;5070633;28;20453;-73
2021/06/23 10:58:30;;;;;;;1.60;1.37;;;28.00;80.90;;;;;;5072381;28;20461;-73
2021/06/23 11:01:09;;;;;;;1.30;1.20;;;28.10;83.20;;;;;;5069994;28;21021;-73
2021/06/23 11:04:08;;;;;;;1.73;1.27;;;28.20;80.50;;;;;;5071995;28;21016;-73
2021/06/23 11:06:47;;;;;;;1.20;1.20;;;28.40;77.80;;;;;;5007503;28;20459;-73
2021/06/23 11:09:24;;;;;;;1.20;1.20;;;28.40;80.80;;;;;;5061918;28;20453;-73
2021/06/23 11:11:53;;;;;;;1.30;1.30;;;28.50;81.40;;;;;;5069457;28;20460;-73
2021/06/23 11:14:22;;;;;;;1.40;1.30;;;28.70;77.50;;;;;;5071747;28;20540;-73
2021/06/23 11:16:49;;;;;;;1.40;1.20;;;28.90;78.10;;;;;;5069525;28;20457;-74
2021/06/23 11:19:17;;;;;;;1.30;1.20;;;28.80;77.10;;;;;;5071604;28;20464;-73
2021/06/23 11:21:46;;;;;;;1.20;1.13;;;28.60;78.90;;;;;;5067727;28;20860;-73
2021/06/23 11:24:17;;;;;;;1.37;1.30;;;28.40;79.10;;;;;;5071556;28;20445;-73
2021/06/23 11:27:00;;;;;;;1.20;1.10;;;27.90;79.30;;;;;;5069301;28;20495;-73
2021/06/23 11:29:38;;;;;;;1.20;1.20;;;27.30;79.40;;;;;;5071354;28;20461;-73
2021/06/23 11:32:13;;;;;;;1.40;1.30;;;27.00;81.20;;;;;;5069208;28;20865;-74
2021/06/23 11:34:57;;;;;;;1.33;1.20;;;27.30;83.00;;;;;;5071376;28;20464;-73
2021/06/23 11:37:30;;;;;;;1.30;1.30;;;27.90;79.40;;;;;;5068767;28;20481;-73
2021/06/23 11:40:18;;;;;;;1.87;1.37;;;28.60;78.50;;;;;;5070875;28;20506;-73
2021/06/23 11:42:46;;;;;;;1.40;1.20;;;29.00;76.90;;;;;;5068244;28;20464;-73
2021/06/23 11:45:15;;;;;;;1.30;1.20;;;29.30;75.80;;;;;;5070891;28;20495;-73
2021/06/23 11:47:42;;;;;;;1.33;1.20;;;29.40;76.30;;;;;;5068734;28;20457;-73
2021/06/23 11:50:10;;;;;;;1.20;1.20;;;29.70;76.70;;;;;;5071085;28;21034;-73
2021/06/23 11:52:39;;;;;;;1.20;1.13;;;29.90;77.70;;;;;;5068740;28;20491;-73
2021/06/23 11:55:11;;;;;;;1.30;1.20;;;30.00;76.60;;;;;;5070972;28;20467;-74
2021/06/23 11:57:38;;;;;;;1.20;1.20;;;30.00;76.20;;;;;;5068799;28;20548;-73
2021/06/23 12:00:10;;;;;;;1.20;1.10;;;30.10;75.50;;;;;;5071055;28;20453;-74
2021/06/23 12:02:37;;;;;;;1.30;1.17;;;30.40;74.50;;;;;;5067989;28;20843;-73
2021/06/23 12:05:07;;;;;;;1.30;1.20;;;30.30;74.90;;;;;;5071040;28;20484;-73
2021/06/23 12:07:34;;;;;;;1.70;1.33;;;30.50;74.00;;;;;;5067621;28;20457;-73
2021/06/23 12:10:02;;;;;;;1.50;1.20;;;30.70;72.20;;;;;;5071018;28;20987;-73
2021/06/23 12:12:30;;;;;;;1.20;1.10;;;30.70;74.60;;;;;;5068735;28;21024;-73
2021/06/23 12:14:57;;;;;;;1.77;1.47;;;30.60;73.50;;;;;;5071001;28;20459;-73
2021/06/23 12:17:26;;;;;;;1.20;1.10;;;30.30;72.30;;;;;;5068629;28;20457;-74
2021/06/23 12:20:03;;;;;;;1.30;1.20;;;29.60;73.80;;;;;;5070703;28;20460;-73
2021/06/23 12:22:31;;;;;;;1.20;1.20;;;29.70;73.50;;;;;;5066772;28;20473;-73
2021/06/23 12:24:58;;;;;;;1.30;1.20;;;30.00;72.30;;;;;;5070638;28;20943;-74
2021/06/23 12:27:25;;;;;;;1.20;1.17;;;30.30;73.80;;;;;;5068347;28;20449;-73
2021/06/23 12:29:52;;;;;;;1.30;1.23;;;30.10;73.70;;;;;;5070292;28;20496;-74
2021/06/23 12:32:19;;;;;;;1.27;1.20;;;29.50;74.20;;;;;;5067982;28;20510;-73
2021/06/23 12:34:48;;;;;;;1.43;1.27;;;29.20;74.70;;;;;;5070525;28;20491;-74
2021/06/23 12:37:15;;;;;;;1.23;1.13;;;28.60;76.70;;;;;;5068135;28;20461;-73
2021/06/23 12:39:42;;;;;;;1.30;1.20;;;28.10;76.60;;;;;;5070372;28;20923;-74
2021/06/23 12:42:09;;;;;;;1.50;1.37;;;28.00;79.20;;;;;;5067796;28;20532;-73
2021/06/23 12:44:36;;;;;;;1.20;1.20;;;27.90;78.30;;;;;;5070418;28;20505;-74
2021/06/23 12:47:04;;;;;;;1.50;1.47;;;28.20;78.40;;;;;;5067699;28;20492;-73
2021/06/23 12:49:31;;;;;;;1.30;1.20;;;28.60;79.60;;;;;;5070487;28;20506;-73
2021/06/23 12:52:00;;;;;;;1.20;1.20;;;28.60;78.50;;;;;;5071456;28;20974;-73
2021/06/23 12:54:27;;;;;;;1.30;1.20;;;28.30;79.50;;;;;;5074189;28;20548;-73
2021/06/23 12:56:55;;;;;;;1.20;1.20;;;28.70;77.90;;;;;;5071759;28;20453;-73
2021/06/23 12:59:24;;;;;;;1.40;1.30;;;28.90;76.40;;;;;;5074086;28;20480;-73
2021/06/23 13:01:51;;;;;;;1.57;1.53;;;28.80;75.90;;;;;;5071670;28;20457;-73
2021/06/23 13:04:18;;;;;;;1.50;1.30;;;28.70;77.00;;;;;;5074050;28;20499;-73
2021/06/23 13:06:45;;;;;;;1.20;1.13;;;28.70;76.10;;;;;;5071293;28;20540;-74
2021/06/23 13:09:13;;;;;;;1.30;1.20;;;29.20;76.20;;;;;;5073823;28;20502;-74
2021/06/23 13:11:40;;;;;;;1.40;1.20;;;29.70;74.10;;;;;;5070133;28;20516;-74
2021/06/23 13:14:09;;;;;;;1.20;1.20;;;30.20;76.10;;;;;;5073813;28;20519;-74